Time;durP1;ratioP1;P1;durP2;ratioP2;P2;SDS_P1;SDS_P2;PMS_P1;PMS_P2;Temp;Humidity;BMP_temperature;BMP_pressure;BME280_temperature;BME280_humidity;BME280_pressure;Samples;Min_cycle;Max_cycle;Signal;HPM_P1;HPM_P2
2022/11/16 00:00:23;;;;;;;8.00;6.77;;;11.30;99.90;;;;;;5058801;28;20473;-65
2022/11/16 00:02:52;;;;;;;7.47;6.67;;;11.30;99.90;;;;;;5058391;28;20780;-66
2022/11/16 00:05:20;;;;;;;7.43;6.73;;;11.30;99.90;;;;;;5044176;28;20493;-66
2022/11/16 00:07:47;;;;;;;8.30;6.83;;;11.30;99.90;;;;;;5038560;28;20463;-67
2022/11/16 00:10:15;;;;;;;8.67;7.10;;;11.30;99.90;;;;;;5056185;28;20895;-66
2022/11/16 00:12:47;;;;;;;9.63;7.00;;;11.30;99.90;;;;;;5058578;28;20490;-67
2022/11/16 00:15:16;;;;;;;8.03;7.20;;;11.30;99.90;;;;;;5057882;28;20468;-66
2022/11/16 00:17:49;;;;;;;8.93;6.43;;;11.30;99.90;;;;;;5058063;28;20772;-67
2022/11/16 00:20:17;;;;;;;8.07;6.07;;;11.30;99.90;;;;;;5042925;28;20943;-66
2022/11/16 00:22:44;;;;;;;7.60;6.70;;;11.30;99.90;;;;;;5038996;28;20522;-67
2022/11/16 00:25:14;;;;;;;7.70;6.90;;;11.30;99.90;;;;;;5037925;28;20459;-67
2022/11/16 00:27:41;;;;;;;8.47;7.27;;;11.30;99.90;;;;;;5037959;28;20857;-67
2022/11/16 00:30:09;;;;;;;10.10;6.90;;;11.30;99.90;;;;;;5042262;28;20483;-68
2022/11/16 00:32:45;;;;;;;7.20;6.50;;;11.30;99.90;;;;;;5038496;28;20433;-68
2022/11/16 00:35:12;;;;;;;7.90;7.07;;;11.30;99.90;;;;;;5037863;28;20983;-68
2022/11/16 00:37:40;;;;;;;7.67;6.87;;;11.30;99.90;;;;;;5037868;28;20491;-69
2022/11/16 00:40:08;;;;;;;7.47;6.60;;;11.30;99.90;;;;;;5037888;28;20498;-68
2022/11/16 00:42:36;;;;;;;8.60;7.43;;;11.30;99.90;;;;;;5057063;28;20567;-69
2022/11/16 00:45:06;;;;;;;8.30;7.10;;;11.20;99.90;;;;;;5057958;28;20918;-69
2022/11/16 00:47:34;;;;;;;8.43;7.63;;;11.20;99.90;;;;;;5056449;28;20551;-69
2022/11/16 00:50:02;;;;;;;7.27;6.57;;;11.20;99.90;;;;;;5057008;28;20478;-69
2022/11/16 00:52:30;;;;;;;12.50;7.90;;;11.20;99.90;;;;;;5040200;28;20463;-69
2022/11/16 00:55:05;;;;;;;7.60;6.37;;;11.20;99.90;;;;;;5037667;28;20904;-68
2022/11/16 00:57:32;;;;;;;7.80;6.43;;;11.20;99.90;;;;;;5037714;28;20486;-69
2022/11/16 00:59:59;;;;;;;7.50;6.70;;;11.20;99.90;;;;;;5037834;28;20517;-68
2022/11/16 01:02:28;;;;;;;7.97;6.47;;;11.20;99.90;;;;;;5053708;28;20544;-68
2022/11/16 01:04:55;;;;;;;6.90;6.20;;;11.20;99.90;;;;;;5056666;28;20985;-68
2022/11/16 01:07:24;;;;;;;7.50;6.00;;;11.20;99.90;;;;;;5057676;28;20502;-68
2022/11/16 01:09:51;;;;;;;8.07;7.27;;;11.20;99.90;;;;;;5056963;28;20466;-67
2022/11/16 01:12:19;;;;;;;8.07;7.27;;;11.20;99.90;;;;;;5049429;28;20463;-67
2022/11/16 01:14:51;;;;;;;8.87;7.47;;;11.20;99.90;;;;;;5037247;28;21021;-67
2022/11/16 01:17:18;;;;;;;8.17;7.30;;;11.20;99.90;;;;;;5038058;28;20878;-68
2022/11/16 01:19:46;;;;;;;7.63;6.93;;;11.20;99.90;;;;;;5037079;28;20892;-67
2022/11/16 01:22:13;;;;;;;8.80;7.17;;;11.10;99.90;;;;;;5039009;28;20517;-66
2022/11/16 01:24:50;;;;;;;8.77;7.17;;;11.10;99.90;;;;;;5057198;28;20504;-66
2022/11/16 01:27:17;;;;;;;8.60;7.70;;;11.10;99.90;;;;;;5056426;28;20462;-66
2022/11/16 01:29:45;;;;;;;9.03;7.37;;;11.10;99.90;;;;;;5047751;28;20466;-67
2022/11/16 01:32:15;;;;;;;12.13;8.13;;;11.10;99.90;;;;;;5037014;28;20951;-67
2022/11/16 01:34:42;;;;;;;8.10;7.23;;;11.20;99.90;;;;;;5037214;28;20478;-67
2022/11/16 01:37:10;;;;;;;8.17;7.37;;;11.10;99.90;;;;;;5037294;28;20574;-67
2022/11/16 01:39:37;;;;;;;10.87;8.60;;;11.10;99.90;;;;;;5040729;28;20512;-67
2022/11/16 01:42:17;;;;;;;8.50;7.60;;;11.20;99.90;;;;;;5057076;28;20547;-66
2022/11/16 01:45:04;;;;;;;10.33;8.83;;;11.20;99.90;;;;;;5056897;28;20469;-64
2022/11/16 01:47:32;;;;;;;10.33;7.30;;;11.10;99.90;;;;;;5057049;28;20556;-66
2022/11/16 01:50:05;;;;;;;8.90;8.00;;;11.10;99.90;;;;;;5053178;28;20480;-65
2022/11/16 01:52:40;;;;;;;8.63;7.73;;;11.10;99.90;;;;;;5036877;28;20788;-66
2022/11/16 01:55:08;;;;;;;8.27;7.50;;;11.10;99.90;;;;;;5037818;28;20926;-64
2022/11/16 01:57:46;;;;;;;7.77;7.00;;;11.10;99.90;;;;;;5037103;28;20853;-65
2022/11/16 02:00:18;;;;;;;9.40;8.40;;;11.10;99.90;;;;;;5041650;28;20470;-63
2022/11/16 02:02:46;;;;;;;6.30;5.70;;;11.20;99.90;;;;;;5060529;28;20465;-64
2022/11/16 02:05:16;;;;;;;8.40;7.60;;;11.20;99.90;;;;;;5060587;28;20573;-64
2022/11/16 02:11:14;;;;;;;8.27;7.37;;;11.20;99.90;;;;;;5040616;28;20886;-64
2022/11/16 02:13:54;;;;;;;7.30;6.60;;;11.20;99.90;;;;;;5040612;28;20437;-65
2022/11/16 02:16:32;;;;;;;7.40;6.70;;;11.20;99.90;;;;;;5040787;28;20517;-65
2022/11/16 02:19:09;;;;;;;6.30;5.70;;;11.20;99.90;;;;;;5056645;28;20551;-65
2022/11/16 02:21:41;;;;;;;6.73;6.07;;;11.20;99.90;;;;;;5059915;28;20482;-64
2022/11/16 03:01:22;;;;;;;3.77;3.00;;;11.20;99.90;;;;;;3605367;28;22352;-64
2022/11/16 03:03:59;;;;;;;3.40;3.10;;;11.20;99.90;;;;;;5019969;28;20498;-65
2022/11/16 03:06:33;;;;;;;3.70;3.17;;;11.20;99.90;;;;;;5018777;28;20467;-66
2022/11/16 03:09:06;;;;;;;3.57;3.20;;;11.20;99.90;;;;;;5018865;28;20499;-65
2022/11/16 03:14:27;;;;;;;3.27;2.80;;;11.20;99.90;;;;;;5019722;28;20526;-64
2022/11/16 03:16:57;;;;;;;3.37;3.07;;;11.10;99.90;;;;;;5017865;28;20488;-66
2022/11/16 03:19:32;;;;;;;3.33;2.97;;;11.10;99.90;;;;;;5004000;28;20465;-66
2022/11/16 03:22:26;;;;;;;4.30;3.50;;;11.10;99.90;;;;;;5019297;28;20483;-65
2022/11/16 03:25:01;;;;;;;4.20;3.80;;;11.10;99.90;;;;;;5019574;28;20874;-65
2022/11/16 03:27:37;;;;;;;2.80;2.60;;;11.10;99.90;;;;;;5016725;28;20463;-65
2022/11/16 03:30:13;;;;;;;3.00;2.70;;;11.10;99.90;;;;;;5000010;28;20468;-64
2022/11/16 03:32:55;;;;;;;3.30;2.60;;;11.10;99.90;;;;;;4999866;28;20500;-64
2022/11/16 03:35:29;;;;;;;3.80;2.60;;;11.10;99.90;;;;;;4999523;28;20465;-65
2022/11/16 03:37:59;;;;;;;3.53;2.53;;;11.10;99.90;;;;;;5001612;28;20804;-65
2022/11/16 03:40:30;;;;;;;2.90;2.60;;;11.10;99.90;;;;;;5019581;28;20443;-65
2022/11/16 03:43:00;;;;;;;3.13;2.70;;;11.10;99.90;;;;;;5018517;28;20473;-65
2022/11/16 03:45:29;;;;;;;3.37;2.70;;;11.10;99.90;;;;;;5019019;28;20880;-66
2022/11/16 03:48:00;;;;;;;3.47;3.17;;;11.00;99.90;;;;;;5019308;28;20514;-66
2022/11/16 03:50:34;;;;;;;3.00;2.57;;;11.00;99.90;;;;;;5000624;28;20447;-66
2022/11/16 03:53:07;;;;;;;3.50;2.73;;;11.10;99.90;;;;;;4999292;28;20461;-68
2022/11/16 03:55:37;;;;;;;6.10;3.20;;;11.00;99.90;;;;;;4999322;28;20472;-67
2022/11/16 03:58:04;;;;;;;3.60;3.27;;;11.00;99.90;;;;;;4999968;28;20880;-67
2022/11/16 04:00:36;;;;;;;4.80;3.37;;;11.00;99.90;;;;;;5014756;28;20492;-67
2022/11/16 04:03:04;;;;;;;4.43;3.63;;;11.00;99.90;;;;;;5048699;28;20472;-66
2022/11/16 04:25:04;;;;;;;5.83;4.70;;;10.90;99.90;;;;;;5037542;28;20456;-68
2022/11/16 04:37:47;;;;;;;5.63;4.93;;;10.90;99.90;;;;;;5000145;28;20520;-68
2022/11/16 04:38:53;;;;;;;5.43;4.93;;;10.90;99.90;;;;;;5057055;28;20479;-67
2022/11/16 04:44:10;;;;;;;5.10;4.60;;;10.90;99.90;;;;;;5037502;28;20544;-67
2022/11/16 04:49:21;;;;;;;5.57;4.93;;;10.90;99.90;;;;;;5037224;28;20898;-67
2022/11/16 04:51:50;;;;;;;5.23;4.73;;;10.90;99.90;;;;;;5043519;28;20484;-67
2022/11/16 04:54:17;;;;;;;4.90;4.07;;;10.90;99.90;;;;;;5057841;28;20461;-66
2022/11/16 04:56:44;;;;;;;5.33;4.60;;;10.80;99.90;;;;;;5056875;28;20489;-66
2022/11/16 04:59:14;;;;;;;6.07;4.97;;;10.90;99.90;;;;;;5057179;28;20469;-66
2022/11/16 05:04:26;;;;;;;6.30;5.70;;;10.90;99.90;;;;;;5041974;28;20447;-67
2022/11/16 05:06:55;;;;;;;6.67;5.60;;;10.80;99.90;;;;;;5036872;28;20470;-67
2022/11/16 05:09:24;;;;;;;6.10;4.30;;;10.80;99.90;;;;;;5037483;28;20463;-67
2022/11/16 05:11:52;;;;;;;5.53;4.70;;;10.80;99.90;;;;;;5037518;28;20459;-66
2022/11/16 05:14:22;;;;;;;5.60;4.70;;;10.80;99.90;;;;;;5055700;28;20477;-64
2022/11/16 05:16:49;;;;;;;4.90;4.40;;;10.80;99.90;;;;;;5057346;28;20432;-66
2022/11/16 05:22:02;;;;;;;4.97;4.03;;;10.70;99.90;;;;;;5056940;28;20441;-67
2022/11/16 05:24:35;;;;;;;4.23;3.83;;;10.70;99.90;;;;;;5038669;28;20757;-66
2022/11/16 05:27:04;;;;;;;9.73;4.20;;;10.70;99.90;;;;;;5036260;28;20521;-66
2022/11/16 05:29:31;;;;;;;4.40;3.70;;;10.70;99.90;;;;;;5036894;28;20907;-64
2022/11/16 05:31:58;;;;;;;5.07;3.60;;;10.70;99.90;;;;;;5036924;28;20463;-65
2022/11/16 05:34:26;;;;;;;4.97;3.60;;;10.70;99.90;;;;;;5051524;28;20459;-66
2022/11/16 05:36:54;;;;;;;3.63;3.23;;;10.70;99.90;;;;;;5056557;28;20473;-66
2022/11/16 05:39:25;;;;;;;3.93;3.20;;;10.70;99.90;;;;;;5056668;28;20463;-65
2022/11/16 05:41:53;;;;;;;4.87;3.23;;;10.70;99.90;;;;;;5056346;28;20469;-63
2022/11/16 05:44:23;;;;;;;4.00;3.23;;;10.60;99.90;;;;;;5045318;28;20491;-64
2022/11/16 05:46:54;;;;;;;4.93;3.17;;;10.60;99.90;;;;;;5054834;28;20454;-65
2022/11/16 05:49:22;;;;;;;4.63;2.77;;;10.60;99.90;;;;;;5063029;28;20800;-64
2022/11/16 05:51:50;;;;;;;2.70;2.20;;;10.60;99.90;;;;;;5065115;28;20462;-63
2022/11/16 05:54:23;;;;;;;3.30;2.70;;;10.60;99.90;;;;;;5060955;28;20475;-63
2022/11/16 05:56:56;;;;;;;3.17;2.00;;;10.60;99.90;;;;;;5060226;28;20474;-63
2022/11/16 05:59:29;;;;;;;3.40;1.90;;;10.60;99.90;;;;;;5063096;28;20555;-63
2022/11/16 06:01:56;;;;;;;2.77;2.10;;;10.60;99.90;;;;;;5062006;28;20486;-62
2022/11/16 06:04:24;;;;;;;4.93;2.40;;;10.60;99.90;;;;;;5063660;28;20486;-64
2022/11/16 06:06:51;;;;;;;3.53;2.23;;;10.50;99.90;;;;;;5060635;28;20480;-63
2022/11/16 06:09:19;;;;;;;3.00;2.27;;;10.50;99.90;;;;;;5063335;28;20458;-65
2022/11/16 06:11:46;;;;;;;4.03;2.60;;;10.50;99.90;;;;;;5067836;28;20461;-63
2022/11/16 06:14:20;;;;;;;3.10;2.10;;;10.50;99.90;;;;;;5069412;28;20450;-63
2022/11/16 06:16:47;;;;;;;8.63;2.70;;;10.50;99.90;;;;;;5062518;28;20513;-63
2022/11/16 06:19:14;;;;;;;4.50;2.40;;;10.50;99.90;;;;;;5056344;28;20462;-65
2022/11/16 06:21:42;;;;;;;2.90;2.27;;;10.50;99.90;;;;;;5064998;28;20482;-66
2022/11/16 06:24:11;;;;;;;3.00;2.70;;;10.50;99.90;;;;;;5067280;28;20980;-66
2022/11/16 06:26:39;;;;;;;3.20;2.50;;;10.50;99.90;;;;;;5059473;28;20458;-66
2022/11/16 06:29:06;;;;;;;6.03;2.57;;;10.50;99.90;;;;;;5063817;28;20906;-66
2022/11/16 06:31:35;;;;;;;4.20;3.20;;;10.40;99.90;;;;;;5061768;28;20458;-66
2022/11/16 06:34:02;;;;;;;5.00;2.87;;;10.40;99.90;;;;;;5061522;28;20882;-65
2022/11/16 06:36:29;;;;;;;3.30;2.90;;;10.40;99.90;;;;;;5051920;28;20462;-65
2022/11/16 06:38:58;;;;;;;5.13;3.00;;;10.30;99.90;;;;;;5061467;28;20484;-65
2022/11/16 06:41:28;;;;;;;3.77;2.60;;;10.30;99.90;;;;;;5051076;28;20474;-65
2022/11/16 06:43:56;;;;;;;3.00;2.43;;;10.30;99.90;;;;;;5054226;28;20497;-65
2022/11/16 06:46:28;;;;;;;8.60;2.90;;;10.20;99.90;;;;;;5065143;28;20528;-65
2022/11/16 06:48:58;;;;;;;4.50;3.13;;;10.20;99.90;;;;;;5058140;28;20473;-65
2022/11/16 06:51:28;;;;;;;4.50;3.70;;;10.10;99.90;;;;;;5061587;28;20503;-65
2022/11/16 06:53:55;;;;;;;4.50;2.67;;;10.10;99.90;;;;;;5057864;28;20559;-65
2022/11/16 06:56:25;;;;;;;4.13;3.47;;;10.10;99.90;;;;;;5065461;28;20454;-65
2022/11/16 06:58:52;;;;;;;5.03;3.13;;;10.00;99.90;;;;;;5066029;28;20431;-64
2022/11/16 07:01:19;;;;;;;3.23;2.93;;;10.00;99.90;;;;;;5068076;28;20456;-64
2022/11/16 07:03:46;;;;;;;5.00;3.23;;;10.00;99.90;;;;;;5073165;28;20497;-65
2022/11/16 07:06:16;;;;;;;3.97;3.27;;;10.00;99.90;;;;;;5066966;28;20457;-64
2022/11/16 07:08:43;;;;;;;5.10;3.20;;;10.00;99.90;;;;;;5067531;28;20465;-64
2022/11/16 07:11:15;;;;;;;3.97;3.30;;;9.90;99.90;;;;;;5067429;28;20454;-64
2022/11/16 07:13:42;;;;;;;4.30;3.20;;;9.90;99.90;;;;;;5068112;28;20460;-64
2022/11/16 07:16:11;;;;;;;4.70;3.57;;;9.90;99.90;;;;;;5068277;28;20544;-64
2022/11/16 07:18:44;;;;;;;8.20;3.90;;;9.90;99.90;;;;;;5065282;28;20447;-64
2022/11/16 07:21:15;;;;;;;6.27;4.30;;;9.90;99.90;;;;;;5068552;28;20453;-64
2022/11/16 07:23:46;;;;;;;13.20;3.37;;;9.80;99.90;;;;;;5060853;28;20482;-64
2022/11/16 07:26:13;;;;;;;11.93;3.27;;;9.90;99.90;;;;;;5066409;28;20426;-64
2022/11/16 07:28:40;;;;;;;4.53;3.70;;;9.90;99.90;;;;;;5066633;28;20463;-64
2022/11/16 07:31:11;;;;;;;4.70;3.20;;;9.90;99.90;;;;;;5065921;28;20470;-64
2022/11/16 07:33:39;;;;;;;8.70;3.40;;;9.80;99.90;;;;;;5060697;28;20541;-64
2022/11/16 07:36:10;;;;;;;6.00;3.27;;;9.90;99.90;;;;;;5063409;28;20454;-64
2022/11/16 07:38:41;;;;;;;6.00;3.20;;;9.90;99.90;;;;;;5061284;28;20883;-64
2022/11/16 07:41:11;;;;;;;6.60;3.90;;;10.00;99.90;;;;;;5059839;28;20484;-64
2022/11/16 07:43:39;;;;;;;5.70;4.00;;;10.10;99.90;;;;;;5064800;28;20486;-64
2022/11/16 07:46:08;;;;;;;7.90;3.90;;;10.10;99.90;;;;;;5068249;28;20458;-64
2022/11/16 07:48:35;;;;;;;6.67;3.23;;;10.00;99.90;;;;;;5063375;28;20455;-64
2022/11/16 07:51:04;;;;;;;4.60;2.90;;;10.00;99.90;;;;;;5065523;28;20462;-64
2022/11/16 07:53:32;;;;;;;6.80;3.30;;;10.00;99.90;;;;;;5066068;28;20453;-64
2022/11/16 07:56:01;;;;;;;7.23;3.10;;;10.00;99.90;;;;;;5071065;28;20484;-64
2022/11/16 07:58:32;;;;;;;5.07;3.17;;;10.10;99.90;;;;;;5077558;28;20810;-64
2022/11/16 08:01:04;;;;;;;6.57;4.10;;;10.10;99.90;;;;;;5059305;28;20528;-64
2022/11/16 08:03:32;;;;;;;5.87;3.53;;;10.30;99.90;;;;;;5037473;28;20920;-64
2022/11/16 08:06:00;;;;;;;6.07;3.00;;;10.30;99.90;;;;;;5038335;28;20756;-64
2022/11/16 08:08:30;;;;;;;5.70;3.17;;;10.30;99.90;;;;;;5039234;28;20558;-64
2022/11/16 08:11:01;;;;;;;4.80;2.97;;;10.40;99.90;;;;;;5064915;28;20468;-64
2022/11/16 08:13:32;;;;;;;6.03;3.20;;;10.30;99.90;;;;;;5064424;28;20464;-64
2022/11/16 08:16:03;;;;;;;9.00;2.93;;;10.40;99.90;;;;;;5055115;28;20466;-64
2022/11/16 08:18:35;;;;;;;8.97;2.50;;;10.30;99.90;;;;;;5054280;28;20458;-64
2022/11/16 08:21:03;;;;;;;6.77;3.27;;;10.30;99.90;;;;;;5058676;28;20461;-64
2022/11/16 08:23:31;;;;;;;7.27;3.47;;;10.30;99.90;;;;;;5063188;28;20486;-63
2022/11/16 08:25:59;;;;;;;7.87;2.80;;;10.40;99.90;;;;;;5064449;28;20461;-63
2022/11/16 08:28:27;;;;;;;5.23;2.67;;;10.50;99.90;;;;;;5062488;28;20462;-63
2022/11/16 08:30:57;;;;;;;6.00;2.63;;;10.60;99.90;;;;;;5061559;28;20489;-63
2022/11/16 08:33:24;;;;;;;4.80;2.93;;;10.90;99.90;;;;;;5057939;28;20902;-63
2022/11/16 08:35:51;;;;;;;7.80;2.60;;;11.10;99.90;;;;;;5055548;28;20458;-63
2022/11/16 08:38:19;;;;;;;11.97;3.00;;;11.20;99.90;;;;;;5055937;28;20488;-63
2022/11/16 08:40:48;;;;;;;4.83;2.60;;;11.40;99.90;;;;;;5056970;28;20458;-61
2022/11/16 08:43:15;;;;;;;7.10;3.30;;;11.50;99.90;;;;;;5056912;28;20463;-62
2022/11/16 08:45:47;;;;;;;5.03;2.80;;;11.60;99.90;;;;;;5057284;28;20717;-62
2022/11/16 08:48:16;;;;;;;5.30;2.97;;;11.60;99.90;;;;;;5057662;28;20594;-62
2022/11/16 08:50:43;;;;;;;6.90;3.60;;;11.70;99.90;;;;;;5057664;28;20468;-62
2022/11/16 08:53:11;;;;;;;5.60;3.20;;;11.80;99.90;;;;;;5047407;28;20470;-62
2022/11/16 08:55:39;;;;;;;7.93;2.97;;;11.90;1.00;;;;;;5044631;28;20894;-63
2022/11/16 08:58:06;;;;;;;8.10;4.00;;;12.10;1.00;;;;;;5074539;28;20442;-64
2022/11/16 09:00:33;;;;;;;6.37;2.80;;;12.10;1.00;;;;;;5061715;28;20765;-64
2022/11/16 09:03:04;;;;;;;8.10;2.93;;;12.20;1.00;;;;;;5055430;28;20493;-64
2022/11/16 09:05:33;;;;;;;5.83;3.20;;;12.20;1.00;;;;;;5056792;28;20516;-64
2022/11/16 09:08:00;;;;;;;7.27;3.00;;;12.20;1.00;;;;;;5055780;28;20899;-65
2022/11/16 09:10:27;;;;;;;9.17;2.73;;;12.30;1.00;;;;;;5057282;28;20466;-65
2022/11/16 09:12:58;;;;;;;10.60;3.23;;;12.40;1.00;;;;;;5052244;28;20470;-66
2022/11/16 09:15:26;;;;;;;5.83;2.73;;;12.60;1.00;;;;;;5049510;28;20456;-67
2022/11/16 09:17:54;;;;;;;6.20;3.47;;;12.60;1.00;;;;;;5035180;28;20466;-68
2022/11/16 09:20:22;;;;;;;7.70;3.10;;;12.50;1.00;;;;;;5037053;28;20467;-67
2022/11/16 09:22:50;;;;;;;5.93;3.27;;;12.40;1.00;;;;;;5037091;28;20804;-67
2022/11/16 09:25:18;;;;;;;8.47;2.87;;;12.20;1.00;;;;;;5054375;28;20493;-67
2022/11/16 09:27:47;;;;;;;9.03;3.13;;;12.10;1.00;;;;;;5056988;28;20470;-67
2022/11/16 09:30:17;;;;;;;4.00;2.90;;;12.10;1.00;;;;;;5057085;28;20462;-67
2022/11/16 09:32:44;;;;;;;7.83;2.80;;;12.20;1.00;;;;;;5068873;28;20461;-68
2022/11/16 09:35:11;;;;;;;6.13;2.57;;;12.20;1.00;;;;;;5061118;28;20465;-68
2022/11/16 09:37:38;;;;;;;10.70;2.60;;;12.10;1.00;;;;;;5063264;28;20461;-68
2022/11/16 09:40:11;;;;;;;6.13;2.93;;;12.20;1.00;;;;;;5064853;28;20470;-68
2022/11/16 09:42:51;;;;;;;4.10;2.30;;;11.90;1.00;;;;;;5058600;28;20461;-68
2022/11/16 09:45:24;;;;;;;5.67;2.93;;;11.80;1.00;;;;;;5061922;28;20496;-68
2022/11/16 09:47:57;;;;;;;5.30;2.63;;;11.60;1.00;;;;;;5055445;28;20499;-67
2022/11/16 09:50:35;;;;;;;5.33;2.30;;;11.40;1.00;;;;;;5055924;28;20488;-68
2022/11/16 09:53:16;;;;;;;5.43;2.43;;;11.20;1.00;;;;;;5055440;28;20556;-67
2022/11/16 09:55:51;;;;;;;4.40;2.33;;;11.20;1.00;;;;;;5055056;28;20458;-68
2022/11/16 09:58:24;;;;;;;6.90;2.30;;;11.30;1.00;;;;;;5053578;28;20462;-68
2022/11/16 10:01:02;;;;;;;6.10;2.37;;;11.50;1.00;;;;;;5056373;28;20463;-67
2022/11/16 10:03:35;;;;;;;6.50;3.00;;;11.80;1.00;;;;;;5048210;28;20799;-67
2022/11/16 10:06:06;;;;;;;5.33;2.80;;;12.40;1.00;;;;;;5036779;28;20561;-67
2022/11/16 10:08:43;;;;;;;11.33;2.80;;;12.70;1.00;;;;;;5036608;28;20966;-67
2022/11/16 10:11:43;;;;;;;6.90;2.73;;;12.90;99.90;;;;;;5036746;28;20758;-66
2022/11/16 10:14:46;;;;;;;5.73;2.33;;;13.10;99.90;;;;;;5041317;28;20469;-66
2022/11/16 10:17:28;;;;;;;6.80;2.60;;;13.20;99.90;;;;;;5056735;28;20457;-66
2022/11/16 10:20:19;;;;;;;8.93;3.33;;;13.30;99.90;;;;;;5059335;28;20458;-66
2022/11/16 10:22:53;;;;;;;7.43;2.90;;;13.30;99.90;;;;;;5060843;28;20450;-65
2022/11/16 10:25:25;;;;;;;3.93;2.10;;;13.10;99.90;;;;;;5044264;28;20526;-65
2022/11/16 10:28:13;;;;;;;7.20;2.40;;;12.70;99.90;;;;;;5040238;28;20437;-66
2022/11/16 10:30:50;;;;;;;7.63;2.40;;;12.40;99.90;;;;;;5040558;28;20473;-67
2022/11/16 10:33:21;;;;;;;5.80;2.33;;;12.20;99.90;;;;;;5039854;28;20758;-65
2022/11/16 10:35:52;;;;;;;8.33;2.70;;;12.10;99.90;;;;;;5053956;28;20454;-65
2022/11/16 10:38:35;;;;;;;;;;;;;;;;;;;;;
2022/11/16 10:41:23;;;;;;;4.10;1.97;;;12.00;99.90;;;;;;5039119;28;20469;-64
2022/11/16 10:43:50;;;;;;;6.97;3.00;;;12.30;99.90;;;;;;5039670;28;20463;-64
2022/11/16 10:46:24;;;;;;;7.80;2.37;;;12.50;99.90;;;;;;5053615;28;20466;-65
2022/11/16 10:49:04;;;;;;;3.80;2.30;;;12.90;99.90;;;;;;5059298;28;20476;-65
2022/11/16 10:51:37;;;;;;;10.90;2.93;;;13.30;99.90;;;;;;5040164;28;20562;-64
2022/11/16 10:54:13;;;;;;;11.40;3.27;;;13.60;99.90;;;;;;5039988;28;20463;-64
2022/11/16 10:56:44;;;;;;;4.37;2.47;;;13.80;99.90;;;;;;5052850;28;20519;-64
2022/11/16 10:59:12;;;;;;;4.73;2.40;;;13.90;99.90;;;;;;5059479;28;20497;-64
2022/11/16 11:01:43;;;;;;;4.80;2.80;;;14.20;99.90;;;;;;5057387;28;20493;-64
2022/11/16 11:04:27;;;;;;;5.13;2.40;;;14.30;99.90;;;;;;5060170;28;20490;-64
2022/11/16 11:07:00;;;;;;;7.97;2.70;;;14.20;99.90;;;;;;5047273;28;20485;-63
2022/11/16 11:09:31;;;;;;;4.40;2.80;;;14.10;99.90;;;;;;5039515;28;20799;-62
2022/11/16 11:15:06;;;;;;;6.60;2.47;;;14.40;99.90;;;;;;5038609;28;20435;-62
2022/11/16 11:17:37;;;;;;;7.20;2.60;;;14.50;99.90;;;;;;5052151;28;20437;-62
2022/11/16 11:20:09;;;;;;;7.57;3.10;;;14.50;99.90;;;;;;5060652;28;20471;-60
2022/11/16 11:22:44;;;;;;;6.70;3.00;;;14.90;99.90;;;;;;5059207;28;20470;-61
2022/11/16 11:25:20;;;;;;;5.40;2.20;;;15.20;99.90;;;;;;5058653;28;20600;-59
2022/11/16 11:27:49;;;;;;;6.50;3.00;;;15.30;99.90;;;;;;5047202;28;20485;-61
2022/11/16 11:30:20;;;;;;;7.97;3.10;;;15.30;99.90;;;;;;5041669;28;20473;-59
2022/11/16 11:32:51;;;;;;;6.20;2.53;;;15.30;99.90;;;;;;5041402;28;20466;-61
2022/11/16 11:35:30;;;;;;;5.37;3.10;;;15.30;99.90;;;;;;5062230;28;20454;-60
2022/11/16 11:38:03;;;;;;;5.17;2.80;;;15.40;99.90;;;;;;5064407;28;20882;-60
2022/11/16 11:40:31;;;;;;;7.30;2.50;;;15.20;99.90;;;;;;5052416;28;20442;-62
2022/11/16 11:43:00;;;;;;;7.97;2.80;;;15.50;99.90;;;;;;5038725;28;20922;-62
2022/11/16 11:45:42;;;;;;;5.43;3.13;;;15.50;99.90;;;;;;5038773;28;20863;-62
2022/11/16 11:48:28;;;;;;;5.43;3.10;;;15.40;99.90;;;;;;5045696;28;20498;-63
2022/11/16 11:50:57;;;;;;;9.10;2.20;;;15.10;99.90;;;;;;5057705;28;20484;-61
2022/11/16 11:53:39;;;;;;;5.50;2.20;;;14.70;99.90;;;;;;5058203;28;20474;-62
2022/11/16 11:56:10;;;;;;;3.10;1.90;;;14.80;99.90;;;;;;5058760;28;20461;-62
2022/11/16 11:58:42;;;;;;;5.63;2.73;;;14.50;99.90;;;;;;5050224;28;20441;-63
2022/11/16 12:01:35;;;;;;;4.30;2.17;;;14.50;99.90;;;;;;5037987;28;20532;-62
2022/11/16 12:04:34;;;;;;;4.80;2.80;;;14.50;99.90;;;;;;5033456;28;20442;-61
2022/11/16 12:07:15;;;;;;;5.40;2.60;;;14.70;99.90;;;;;;5031865;28;21016;-62
2022/11/16 12:09:50;;;;;;;5.37;2.63;;;14.80;99.90;;;;;;5025481;28;20601;-62
2022/11/16 12:12:33;;;;;;;4.20;2.37;;;14.70;99.90;;;;;;5018082;28;20434;-62
2022/11/16 12:15:15;;;;;;;4.63;2.10;;;14.60;99.90;;;;;;5017886;28;20530;-62
2022/11/16 12:17:51;;;;;;;8.00;2.47;;;14.80;99.90;;;;;;5017357;28;20908;-62
2022/11/16 12:20:33;;;;;;;3.90;1.80;;;15.00;99.90;;;;;;5031143;28;20775;-62
2022/11/16 12:23:30;;;;;;;7.80;3.03;;;15.20;99.90;;;;;;5037278;28;20759;-63
2022/11/16 12:26:06;;;;;;;5.97;2.80;;;14.50;99.90;;;;;;4992685;28;20498;-62
2022/11/16 12:28:51;;;;;;;7.27;2.90;;;14.20;99.90;;;;;;5035565;28;20490;-62
2022/11/16 12:31:54;;;;;;;10.20;3.40;;;14.30;99.90;;;;;;5021929;28;20724;-62
2022/11/16 12:34:35;;;;;;;6.30;2.57;;;14.20;99.90;;;;;;5019425;28;20471;-62
2022/11/16 12:37:15;;;;;;;4.37;2.50;;;13.90;99.90;;;;;;5037363;28;20437;-63
2022/11/16 12:39:53;;;;;;;4.70;2.30;;;14.00;99.90;;;;;;5037160;28;20473;-62
2022/11/16 12:42:42;;;;;;;5.30;2.20;;;14.10;99.90;;;;;;5018271;28;20472;-62
2022/11/16 12:45:31;;;;;;;5.23;2.40;;;14.50;99.90;;;;;;5017512;28;20492;-58
2022/11/16 12:48:48;;;;;;;7.10;2.20;;;14.80;99.90;;;;;;5022995;28;20478;-61
2022/11/16 12:51:27;;;;;;;5.10;2.20;;;14.50;99.90;;;;;;5009073;28;20453;-62
2022/11/16 12:54:13;;;;;;;6.97;3.10;;;14.20;99.90;;;;;;5017732;28;20468;-62
2022/11/16 12:56:51;;;;;;;3.53;2.20;;;14.30;99.90;;;;;;5016927;28;20915;-62
2022/11/16 12:59:29;;;;;;;6.03;2.73;;;14.50;99.90;;;;;;5016388;28;20757;-62
2022/11/16 13:02:05;;;;;;;3.57;2.20;;;14.40;99.90;;;;;;5028032;28;20576;-62
2022/11/16 13:04:39;;;;;;;5.40;3.03;;;14.10;99.90;;;;;;5047841;28;20468;-62
2022/11/16 13:07:11;;;;;;;3.30;1.97;;;13.90;99.90;;;;;;5036030;28;20481;-62
2022/11/16 13:09:45;;;;;;;11.93;2.80;;;13.60;99.90;;;;;;5036221;28;20467;-62
2022/11/16 13:12:16;;;;;;;7.17;2.37;;;13.60;99.90;;;;;;5043925;28;20777;-62
2022/11/16 13:14:47;;;;;;;7.47;2.50;;;13.50;99.90;;;;;;5037534;28;20845;-62
2022/11/16 13:17:23;;;;;;;4.30;2.20;;;13.60;99.90;;;;;;5044898;28;20540;-63
2022/11/16 13:20:05;;;;;;;8.50;3.10;;;13.40;99.90;;;;;;5040618;28;20557;-62
2022/11/16 13:22:36;;;;;;;4.00;2.33;;;13.40;99.90;;;;;;5045596;28;20562;-62
2022/11/16 13:25:15;;;;;;;3.03;2.00;;;13.00;99.90;;;;;;5037002;28;20518;-62
2022/11/16 13:27:57;;;;;;;5.00;2.10;;;12.90;99.90;;;;;;5055627;28;20465;-62
2022/11/16 13:30:29;;;;;;;5.00;2.60;;;12.90;99.90;;;;;;5055769;28;20462;-61
2022/11/16 13:33:13;;;;;;;5.27;2.40;;;12.90;99.90;;;;;;5036139;28;20845;-62
2022/11/16 13:35:41;;;;;;;5.40;2.40;;;13.00;99.90;;;;;;5037406;28;20462;-62
2022/11/16 13:38:12;;;;;;;7.17;2.20;;;13.00;99.90;;;;;;5055789;28;20485;-62
2022/11/16 13:40:40;;;;;;;6.33;2.50;;;13.10;99.90;;;;;;5056655;28;20466;-62
2022/11/16 13:43:21;;;;;;;7.00;2.77;;;13.10;99.90;;;;;;5053611;28;20470;-62
2022/11/16 13:45:55;;;;;;;9.30;2.57;;;13.10;99.90;;;;;;5055987;28;20539;-62
2022/11/16 13:48:29;;;;;;;7.00;2.47;;;13.00;99.90;;;;;;5038247;28;20466;-63
2022/11/16 13:50:58;;;;;;;3.90;2.13;;;12.90;99.90;;;;;;5041724;28;20466;-62
2022/11/16 13:53:36;;;;;;;7.27;2.87;;;12.90;99.90;;;;;;5054837;28;20458;-62
2022/11/16 13:56:07;;;;;;;3.97;2.23;;;12.80;99.90;;;;;;5059659;28;20448;-62
2022/11/16 13:58:37;;;;;;;3.73;2.00;;;12.70;99.90;;;;;;5060589;28;20468;-62
2022/11/16 14:01:09;;;;;;;5.27;2.10;;;12.70;99.90;;;;;;5059038;28;20505;-62
2022/11/16 14:03:40;;;;;;;4.17;1.93;;;12.80;99.90;;;;;;5059000;28;20489;-62
2022/11/16 14:06:59;;;;;;;3.93;2.40;;;12.80;99.90;;;;;;5060586;28;20499;-62
2022/11/16 14:09:46;;;;;;;5.70;2.47;;;12.70;99.90;;;;;;5013612;28;20571;-62
2022/11/16 14:12:58;;;;;;;4.83;2.30;;;12.70;99.90;;;;;;5060237;28;20986;-62
2022/11/16 14:15:37;;;;;;;6.90;2.60;;;12.50;99.90;;;;;;5040259;28;20505;-63
2022/11/16 14:18:36;;;;;;;3.60;2.57;;;12.40;99.90;;;;;;5050016;28;20814;-63
2022/11/16 14:21:23;;;;;;;4.20;2.00;;;12.40;99.90;;;;;;5059267;28;20523;-63
2022/11/16 14:24:15;;;;;;;3.30;1.80;;;12.40;99.90;;;;;;5060591;28;20488;-63
2022/11/16 14:26:54;;;;;;;5.90;2.27;;;12.40;99.90;;;;;;5060466;28;20500;-63
2022/11/16 14:29:36;;;;;;;7.27;3.07;;;12.20;99.90;;;;;;5043556;28;20849;-63
2022/11/16 14:32:19;;;;;;;4.63;2.13;;;12.20;99.90;;;;;;5039477;28;20445;-63
2022/11/16 14:34:54;;;;;;;3.57;2.07;;;12.10;99.90;;;;;;5040367;28;20459;-63
2022/11/16 14:37:32;;;;;;;4.53;2.10;;;12.10;99.90;;;;;;5040205;28;20467;-63
2022/11/16 14:40:04;;;;;;;3.87;2.40;;;12.10;99.90;;;;;;5058569;28;20466;-63
2022/11/16 14:42:35;;;;;;;3.50;2.20;;;12.00;99.90;;;;;;5059695;28;20461;-63